createdAt,value
2019-02-08T00:01:58.659Z,41.50
2019-02-08T00:04:29.509Z,45.60
2019-02-08T00:07:00.098Z,45.43
2019-02-08T00:09:30.999Z,49.67
2019-02-08T00:12:01.703Z,50.67
2019-02-08T00:14:32.597Z,53.13
2019-02-08T00:17:03.109Z,65.10
2019-02-08T00:19:33.824Z,51.43
2019-02-08T00:22:05.855Z,52.73
2019-02-08T00:24:36.768Z,53.63
2019-02-08T00:27:07.824Z,51.50
2019-02-08T00:29:38.492Z,54.97
2019-02-08T00:32:09.117Z,54.33
2019-02-08T00:34:39.839Z,51.57
2019-02-08T00:37:10.579Z,47.60
2019-02-08T00:39:41.164Z,46.70
2019-02-08T00:42:12.054Z,51.50
2019-02-08T00:44:42.594Z,48.43
2019-02-08T00:47:13.165Z,48.23
2019-02-08T00:49:43.895Z,46.43
2019-02-08T00:52:14.850Z,43.50
2019-02-08T00:54:45.393Z,45.33
2019-02-08T00:57:16.029Z,41.63
2019-02-08T00:59:46.659Z,38.00
2019-02-08T01:02:17.314Z,39.40
2019-02-08T01:04:48.699Z,44.70
2019-02-08T01:07:19.441Z,43.73
2019-02-08T01:09:50.234Z,45.33
2019-02-08T01:12:21.089Z,43.23
2019-02-08T01:14:51.969Z,43.87
2019-02-08T01:17:22.654Z,48.30
2019-02-08T01:19:53.304Z,46.03
2019-02-08T01:22:23.859Z,45.10
2019-02-08T01:24:54.414Z,45.93
2019-02-08T01:27:25.110Z,47.73
2019-02-08T01:29:55.715Z,57.30
2019-02-08T01:32:26.364Z,48.87
2019-02-08T01:34:57.094Z,42.17
2019-02-08T01:37:27.688Z,42.70
2019-02-08T01:39:58.249Z,45.93
2019-02-08T01:42:28.898Z,44.03
2019-02-08T01:44:59.579Z,53.57
2019-02-08T01:47:30.164Z,58.47
2019-02-08T01:50:00.938Z,53.90
2019-02-08T01:52:31.623Z,59.83
2019-02-08T01:55:02.235Z,47.77
2019-02-08T01:57:32.848Z,51.73
2019-02-08T02:00:03.609Z,58.07
2019-02-08T02:02:34.123Z,55.30
2019-02-08T02:05:04.874Z,57.73
2019-02-08T02:07:35.413Z,56.93
2019-02-08T02:10:07.494Z,62.67
2019-02-08T02:12:38.059Z,61.87
2019-02-08T02:15:09.674Z,60.93
2019-02-08T02:17:40.384Z,65.90
2019-02-08T02:20:11.968Z,62.33
2019-02-08T02:22:42.469Z,70.57
2019-02-08T02:25:13.109Z,72.73
2019-02-08T02:27:43.613Z,66.57
2019-02-08T02:30:17.239Z,73.43
2019-02-08T02:32:48.134Z,68.80
2019-02-08T02:35:18.683Z,64.27
2019-02-08T02:37:49.335Z,64.80
2019-02-08T02:40:20.447Z,62.63
2019-02-08T02:42:51.394Z,71.57
2019-02-08T02:45:26.981Z,65.30
2019-02-08T02:47:57.734Z,62.27
2019-02-08T02:50:28.474Z,59.50
2019-02-08T02:52:59.118Z,57.77
2019-02-08T02:55:30.189Z,61.93
2019-02-08T02:58:00.778Z,61.17
2019-02-08T03:00:34.097Z,58.63
2019-02-08T03:03:04.839Z,51.33
2019-02-08T03:05:35.604Z,46.27
2019-02-08T03:08:07.509Z,48.60
2019-02-08T03:10:38.173Z,47.40
2019-02-08T03:13:09.335Z,52.57
2019-02-08T03:15:40.082Z,52.47
2019-02-08T03:18:10.718Z,53.40
2019-02-08T03:20:41.315Z,59.27
2019-02-08T03:23:12.034Z,59.30
2019-02-08T03:26:15.439Z,53.63
2019-02-08T03:29:04.019Z,52.17
2019-02-08T03:31:34.679Z,49.20
2019-02-08T03:34:05.247Z,52.40
2019-02-08T03:36:35.718Z,56.00
2019-02-08T03:39:09.003Z,58.97
2019-02-08T03:41:39.610Z,58.77
2019-02-08T03:44:10.335Z,47.00
2019-02-08T03:46:40.897Z,54.13
2019-02-08T03:49:11.482Z,52.50
2019-02-08T03:51:42.064Z,50.40
2019-02-08T03:54:12.634Z,63.00
2019-02-08T03:56:43.223Z,58.50
2019-02-08T03:59:13.861Z,57.50
2019-02-08T04:01:44.400Z,60.80
2019-02-08T04:04:41.974Z,56.33
2019-02-08T04:07:12.580Z,57.57
2019-02-08T04:09:43.238Z,63.90
2019-02-08T04:12:13.874Z,57.90
2019-02-08T04:14:44.546Z,60.97
2019-02-08T04:17:15.209Z,69.40
2019-02-08T04:19:45.744Z,60.33
2019-02-08T04:22:16.385Z,63.77
2019-02-08T04:24:47.060Z,63.33
2019-02-08T04:27:17.743Z,63.17
2019-02-08T04:29:48.459Z,65.97
2019-02-08T04:32:19.365Z,66.00
2019-02-08T04:34:49.899Z,55.87
2019-02-08T04:37:20.572Z,62.50
2019-02-08T04:39:51.194Z,58.80
2019-02-08T04:42:22.194Z,63.63
2019-02-08T04:44:52.852Z,58.97
2019-02-08T04:47:24.089Z,59.33
2019-02-08T04:49:54.673Z,51.07
2019-02-08T04:52:25.200Z,54.43
2019-02-08T04:54:55.998Z,52.00
2019-02-08T04:57:26.589Z,54.03
2019-02-08T04:59:57.139Z,56.10
2019-02-08T05:02:27.806Z,54.00
2019-02-08T05:04:58.433Z,46.07
2019-02-08T05:07:29.068Z,53.97
2019-02-08T05:09:59.697Z,54.77
2019-02-08T05:12:31.088Z,57.47
2019-02-08T05:15:03.168Z,55.93
2019-02-08T05:17:33.923Z,57.90
2019-02-08T05:20:04.759Z,62.90
2019-02-08T05:22:35.509Z,61.27
2019-02-08T05:25:06.498Z,56.73
2019-02-08T05:27:37.019Z,54.30
2019-02-08T05:30:17.058Z,55.50
2019-02-08T05:32:47.623Z,49.10
2019-02-08T05:35:18.400Z,47.33
2019-02-08T05:37:49.040Z,44.00
2019-02-08T05:40:19.955Z,49.27
2019-02-08T05:42:50.701Z,46.23
2019-02-08T05:45:21.793Z,43.73
2019-02-08T05:47:52.418Z,49.93
2019-02-08T05:50:24.298Z,51.30
2019-02-08T05:52:55.123Z,53.87
2019-02-08T05:55:27.388Z,53.57
2019-02-08T05:57:58.018Z,48.53
2019-02-08T06:01:00.149Z,51.60
2019-02-08T06:03:30.690Z,50.43
2019-02-08T06:06:01.284Z,44.97
2019-02-08T06:08:32.072Z,43.83
2019-02-08T06:11:02.703Z,46.57
2019-02-08T06:13:33.389Z,44.37
2019-02-08T06:16:04.069Z,46.07
2019-02-08T06:18:34.724Z,50.00
2019-02-08T06:21:05.449Z,47.80
2019-02-08T06:23:35.999Z,44.97
2019-02-08T06:26:06.780Z,42.63
2019-02-08T06:28:37.639Z,42.47
2019-02-08T06:31:08.210Z,36.83
2019-02-08T06:33:38.818Z,40.13
2019-02-08T06:36:09.503Z,43.87
2019-02-08T06:38:39.939Z,54.67
2019-02-08T06:41:10.573Z,54.37
2019-02-08T06:43:41.214Z,67.70
2019-02-08T06:46:11.816Z,45.37
2019-02-08T06:48:42.363Z,72.43
2019-02-08T06:51:13.179Z,62.00
2019-02-08T06:53:43.789Z,56.80
2019-02-08T06:56:32.058Z,50.30
2019-02-08T06:59:24.483Z,58.10
2019-02-08T07:02:12.744Z,42.97
2019-02-08T07:05:04.943Z,43.37
2019-02-08T07:07:42.993Z,50.93
2019-02-08T07:10:32.988Z,54.67
2019-02-08T07:13:22.274Z,60.60
2019-02-08T07:16:11.619Z,65.77
2019-02-08T07:18:56.818Z,53.93
2019-02-08T07:21:46.061Z,55.63
2019-02-08T07:24:32.144Z,56.37
2019-02-08T07:27:10.578Z,58.40
2019-02-08T07:29:58.818Z,55.37
2019-02-08T07:32:47.963Z,65.50
2019-02-08T07:35:36.341Z,54.53
2019-02-08T07:38:28.972Z,52.60
2019-02-08T07:41:37.194Z,49.47
2019-02-08T07:44:52.364Z,47.07
2019-02-08T07:47:44.788Z,60.10
2019-02-08T07:50:34.489Z,57.20
2019-02-08T07:53:33.688Z,51.73
2019-02-08T07:56:20.088Z,69.90
2019-02-08T07:59:20.518Z,63.83
2019-02-08T08:02:14.373Z,61.13
2019-02-08T08:05:19.244Z,52.27
2019-02-08T08:08:20.569Z,55.53
2019-02-08T08:11:25.269Z,57.40
2019-02-08T08:14:05.230Z,59.50
2019-02-08T08:16:53.494Z,57.97
2019-02-08T08:19:50.054Z,57.67
2019-02-08T08:22:36.979Z,52.67
2019-02-08T08:25:36.300Z,53.97
2019-02-08T08:28:28.739Z,47.40
2019-02-08T08:31:15.599Z,45.03
2019-02-08T08:33:55.138Z,45.57
2019-02-08T08:37:03.318Z,48.60
2019-02-08T08:40:00.109Z,42.80
2019-02-08T08:42:55.799Z,42.37
2019-02-08T08:46:02.409Z,43.27
2019-02-08T08:48:57.413Z,37.10
2019-02-08T08:51:59.629Z,42.53
2019-02-08T08:55:28.219Z,38.70
2019-02-08T08:58:50.379Z,40.60
2019-02-08T09:01:45.159Z,38.20
2019-02-08T09:04:50.770Z,33.93
2019-02-08T09:08:00.024Z,37.53
2019-02-08T09:11:04.974Z,36.43
2019-02-08T09:13:57.920Z,39.13
2019-02-08T09:17:12.153Z,39.20
2019-02-08T09:20:41.763Z,39.23
2019-02-08T09:23:50.598Z,36.63
2019-02-08T09:26:52.019Z,35.57
2019-02-08T09:30:06.733Z,35.97
2019-02-08T09:32:51.389Z,37.47
2019-02-08T09:36:03.680Z,37.27
2019-02-08T09:39:17.578Z,34.90
2019-02-08T09:42:26.349Z,33.10
2019-02-08T09:45:18.363Z,32.90
2019-02-08T09:48:20.879Z,30.73
2019-02-08T09:51:31.093Z,35.43
2019-02-08T09:54:25.133Z,33.37
2019-02-08T09:57:31.493Z,30.60
2019-02-08T10:00:45.254Z,32.37
2019-02-08T10:04:05.205Z,32.70
2019-02-08T10:07:10.983Z,32.30
2019-02-08T10:10:37.274Z,29.20
2019-02-08T10:13:58.653Z,28.50
2019-02-08T10:17:11.733Z,29.53
2019-02-08T10:20:18.189Z,36.53
2019-02-08T10:23:50.524Z,24.37
2019-02-08T10:26:47.404Z,27.87
2019-02-08T10:29:52.044Z,29.90
2019-02-08T10:33:17.318Z,26.87
2019-02-08T10:36:37.204Z,27.73
2019-02-08T10:39:40.383Z,27.20
2019-02-08T10:42:42.894Z,26.50
2019-02-08T10:45:55.654Z,26.67
2019-02-08T10:49:28.143Z,26.43
2019-02-08T10:52:35.138Z,24.43
2019-02-08T10:55:52.273Z,25.40
2019-02-08T10:59:01.438Z,25.27
2019-02-08T11:02:30.794Z,24.53
2019-02-08T11:05:53.134Z,25.47
2019-02-08T11:09:09.375Z,24.70
2019-02-08T11:12:41.823Z,28.27
2019-02-08T11:15:51.269Z,23.23
2019-02-08T11:19:24.054Z,22.23
2019-02-08T11:21:55.319Z,24.50
2019-02-08T11:24:27.379Z,24.40
2019-02-08T11:27:00.026Z,23.93
2019-02-08T11:29:30.835Z,25.93
2019-02-08T11:32:01.479Z,27.30
2019-02-08T11:34:32.584Z,26.23
2019-02-08T11:37:03.403Z,30.13
2019-02-08T11:39:34.708Z,24.23
2019-02-08T11:42:05.724Z,25.97
2019-02-08T11:44:36.634Z,26.10
2019-02-08T11:47:07.414Z,24.47
2019-02-08T11:49:39.229Z,24.73
2019-02-08T11:52:09.919Z,22.40
2019-02-08T11:54:40.616Z,23.20
2019-02-08T11:57:13.369Z,23.93
2019-02-08T11:59:44.323Z,24.50
2019-02-08T12:02:14.918Z,22.57
2019-02-08T12:04:46.280Z,22.00
2019-02-08T12:07:17.194Z,20.97
2019-02-08T12:09:48.134Z,21.50
2019-02-08T12:12:18.819Z,23.30
2019-02-08T12:14:49.399Z,19.90
2019-02-08T12:17:20.036Z,22.57
2019-02-08T12:19:50.914Z,23.30
2019-02-08T12:22:21.620Z,23.30
2019-02-08T12:24:52.630Z,23.13
2019-02-08T12:27:23.381Z,27.33
2019-02-08T12:29:53.985Z,25.23
2019-02-08T12:32:24.624Z,23.77
2019-02-08T12:34:55.339Z,24.43
2019-02-08T12:37:25.943Z,24.50
2019-02-08T12:39:56.509Z,25.27
2019-02-08T12:42:27.914Z,23.87
2019-02-08T12:44:58.634Z,24.40
2019-02-08T12:47:29.270Z,22.57
2019-02-08T12:50:00.175Z,25.53
2019-02-08T12:52:31.064Z,27.43
2019-02-08T12:55:01.642Z,25.00
2019-02-08T12:57:32.229Z,28.10
2019-02-08T13:00:02.640Z,23.77
2019-02-08T13:02:33.784Z,25.17
2019-02-08T13:05:05.339Z,24.10
2019-02-08T13:07:36.129Z,24.77
2019-02-08T13:10:09.739Z,24.87
2019-02-08T13:12:40.464Z,28.47
2019-02-08T13:15:12.114Z,26.37
2019-02-08T13:17:42.732Z,26.17
2019-02-08T13:20:15.709Z,23.30
2019-02-08T13:22:47.096Z,23.03
2019-02-08T13:25:18.449Z,26.17
2019-02-08T13:27:49.599Z,25.93
2019-02-08T13:30:22.963Z,26.23
2019-02-08T13:32:53.729Z,29.10
2019-02-08T13:35:24.669Z,25.13
2019-02-08T13:37:55.564Z,26.33
2019-02-08T13:40:25.829Z,25.10
2019-02-08T13:42:56.539Z,22.60
2019-02-08T13:45:28.014Z,23.30
2019-02-08T13:47:58.654Z,24.87
2019-02-08T13:50:29.896Z,22.50
2019-02-08T13:53:00.659Z,22.93
2019-02-08T13:55:31.485Z,22.50
2019-02-08T13:58:02.355Z,23.63
2019-02-08T14:00:35.160Z,25.63
2019-02-08T14:03:06.194Z,22.03
2019-02-08T14:05:37.039Z,22.00
2019-02-08T14:08:08.219Z,23.00
2019-02-08T14:10:39.274Z,21.17
2019-02-08T14:13:10.314Z,19.70
2019-02-08T14:15:41.629Z,20.57
2019-02-08T14:18:12.494Z,22.10
2019-02-08T14:20:43.423Z,22.23
2019-02-08T14:23:14.750Z,25.77
2019-02-08T14:25:45.335Z,22.13
2019-02-08T14:28:16.154Z,24.03
2019-02-08T14:30:47.325Z,21.13
2019-02-08T14:33:17.994Z,21.40
2019-02-08T14:35:48.699Z,20.77
2019-02-08T14:38:22.494Z,21.17
2019-02-08T14:40:53.164Z,19.33
2019-02-08T14:43:23.849Z,20.87
2019-02-08T14:45:54.569Z,20.93
2019-02-08T14:48:25.209Z,21.70
2019-02-08T14:50:55.956Z,19.00
2019-02-08T14:53:27.746Z,22.63
2019-02-08T14:55:58.474Z,20.20
2019-02-08T14:58:29.294Z,20.20
2019-02-08T15:00:59.944Z,22.10
2019-02-08T15:03:30.611Z,22.10
2019-02-08T15:06:01.479Z,20.77
2019-02-08T15:08:32.344Z,19.67
2019-02-08T15:11:03.004Z,22.73
2019-02-08T15:13:33.688Z,23.40
2019-02-08T15:16:05.085Z,20.37
2019-02-08T15:18:35.876Z,20.07
2019-02-08T15:21:06.664Z,20.00
2019-02-08T15:23:37.499Z,22.20
2019-02-08T15:26:08.160Z,22.00
2019-02-08T15:28:39.199Z,20.93
2019-02-08T15:31:10.019Z,20.00
2019-02-08T15:33:40.789Z,22.60
2019-02-08T15:36:11.784Z,20.73
2019-02-08T15:38:44.945Z,20.70
2019-02-08T15:41:15.840Z,20.30
2019-02-08T15:43:47.084Z,19.63
2019-02-08T15:46:18.243Z,23.23
2019-02-08T15:48:49.144Z,23.47
2019-02-08T15:51:20.804Z,20.70
2019-02-08T15:53:51.903Z,20.33
2019-02-08T15:56:22.721Z,20.83
2019-02-08T15:58:53.899Z,22.37
2019-02-08T16:01:24.681Z,23.47
2019-02-08T16:03:55.484Z,22.77
2019-02-08T16:06:26.219Z,22.47
2019-02-08T16:08:57.124Z,22.63
2019-02-08T16:11:27.844Z,26.37
2019-02-08T16:13:58.944Z,24.13
2019-02-08T16:16:30.089Z,24.77
2019-02-08T16:19:00.884Z,22.97
2019-02-08T16:21:32.118Z,27.87
2019-02-08T16:24:03.089Z,26.23
2019-02-08T16:26:33.729Z,26.77
2019-02-08T16:29:04.519Z,26.10
2019-02-08T16:31:35.124Z,30.07
2019-02-08T16:34:05.890Z,29.53
2019-02-08T16:36:36.604Z,30.90
2019-02-08T16:39:11.193Z,29.87
2019-02-08T16:41:42.104Z,28.93
2019-02-08T16:44:12.800Z,30.70
2019-02-08T16:46:43.721Z,30.33
2019-02-08T16:49:14.689Z,28.83
2019-02-08T16:51:45.830Z,27.93
2019-02-08T16:54:17.174Z,36.20
2019-02-08T16:56:48.326Z,30.60
2019-02-08T16:59:19.659Z,32.07
2019-02-08T17:01:50.594Z,29.50
2019-02-08T17:04:21.875Z,38.30
2019-02-08T17:06:53.454Z,48.20
2019-02-08T17:09:25.029Z,46.40
2019-02-08T17:11:56.302Z,45.83
2019-02-08T17:14:27.194Z,48.73
2019-02-08T17:16:58.209Z,48.07
2019-02-08T17:19:29.153Z,50.53
2019-02-08T17:22:00.014Z,49.53
2019-02-08T17:24:30.739Z,49.43
2019-02-08T17:27:01.335Z,50.70
2019-02-08T17:29:32.371Z,49.43
2019-02-08T17:32:03.020Z,56.17
2019-02-08T17:34:33.953Z,57.00
2019-02-08T17:37:04.774Z,56.87
2019-02-08T17:39:36.318Z,55.40
2019-02-08T17:42:07.275Z,61.13
2019-02-08T17:44:38.529Z,58.20
2019-02-08T17:47:09.299Z,57.23
2019-02-08T17:49:40.035Z,61.77
2019-02-08T17:52:11.106Z,57.43
2019-02-08T17:54:42.050Z,61.20
2019-02-08T17:57:12.769Z,55.13
2019-02-08T17:59:43.455Z,62.37
2019-02-08T18:02:14.174Z,61.80
2019-02-08T18:04:45.139Z,62.73
2019-02-08T18:07:16.299Z,58.90
2019-02-08T18:09:47.204Z,57.07
2019-02-08T18:12:18.404Z,64.97
2019-02-08T18:14:49.045Z,63.87
2019-02-08T18:17:20.134Z,59.33
2019-02-08T18:19:50.964Z,72.20
2019-02-08T18:22:21.811Z,60.77
2019-02-08T18:24:52.549Z,63.97
2019-02-08T18:27:23.604Z,58.03
2019-02-08T18:29:54.844Z,65.93
2019-02-08T18:32:26.099Z,61.43
2019-02-08T18:34:58.472Z,55.53
2019-02-08T18:37:30.764Z,62.83
2019-02-08T18:40:02.052Z,65.90
2019-02-08T18:42:35.694Z,57.47
2019-02-08T18:45:07.426Z,56.83
2019-02-08T18:47:38.094Z,60.87
2019-02-08T18:50:14.184Z,61.03
2019-02-08T18:52:44.936Z,63.60
2019-02-08T18:55:15.674Z,63.60
2019-02-08T18:57:46.794Z,55.17
2019-02-08T19:00:20.529Z,49.43
2019-02-08T19:02:51.864Z,54.27
2019-02-08T19:05:23.084Z,54.67
2019-02-08T19:07:53.859Z,56.40
2019-02-08T19:10:24.759Z,55.87
2019-02-08T19:12:55.504Z,63.03
2019-02-08T19:15:26.615Z,67.70
2019-02-08T19:17:57.399Z,67.40
2019-02-08T19:20:28.325Z,65.77
2019-02-08T19:22:59.451Z,62.63
2019-02-08T19:25:35.226Z,65.53
2019-02-08T19:28:07.030Z,63.03
2019-02-08T19:30:38.944Z,63.87
2019-02-08T19:33:10.372Z,61.33
2019-02-08T19:35:41.330Z,64.63
2019-02-08T19:38:12.890Z,64.93
2019-02-08T19:40:45.381Z,66.50
2019-02-08T19:43:16.488Z,69.70
2019-02-08T19:45:47.166Z,71.23
2019-02-08T19:48:18.199Z,65.10
2019-02-08T19:50:49.700Z,68.33
2019-02-08T19:53:20.605Z,67.77
2019-02-08T19:55:51.769Z,63.27
2019-02-08T19:58:22.494Z,67.33
2019-02-08T20:00:53.814Z,66.67
2019-02-08T20:03:24.455Z,70.13
2019-02-08T20:05:55.194Z,69.70
2019-02-08T20:08:26.170Z,67.37
2019-02-08T20:10:57.479Z,73.57
2019-02-08T20:13:28.346Z,64.87
2019-02-08T20:16:00.224Z,65.77
2019-02-08T20:18:30.939Z,65.50
2019-02-08T20:21:01.899Z,64.27
2019-02-08T20:23:32.699Z,68.43
2019-02-08T20:26:04.169Z,65.57
2019-02-08T20:28:42.046Z,66.13
2019-02-08T20:31:07.905Z,63.43
2019-02-08T20:33:39.279Z,62.17
2019-02-08T20:36:10.052Z,62.23
2019-02-08T20:38:41.185Z,64.20
2019-02-08T20:41:12.120Z,58.03
2019-02-08T20:43:43.319Z,65.10
2019-02-08T20:46:14.079Z,69.27
2019-02-08T20:48:44.930Z,68.00
2019-02-08T20:51:16.418Z,67.67
2019-02-08T20:53:47.159Z,67.93
2019-02-08T20:56:19.329Z,65.33
2019-02-08T20:58:51.164Z,65.70
2019-02-08T21:01:22.244Z,62.20
2019-02-08T21:03:54.370Z,62.23
2019-02-08T21:06:25.249Z,67.97
2019-02-08T21:08:56.038Z,78.50
2019-02-08T21:11:27.172Z,69.03
2019-02-08T21:13:59.299Z,65.57
2019-02-08T21:16:30.054Z,69.83
2019-02-08T21:19:02.414Z,71.00
2019-02-08T21:21:33.585Z,61.47
2019-02-08T21:24:05.399Z,68.97
2019-02-08T21:26:36.594Z,63.80
2019-02-08T21:29:08.014Z,71.30
2019-02-08T21:31:41.479Z,71.40
2019-02-08T21:34:13.874Z,75.50
2019-02-08T21:36:46.504Z,78.20
2019-02-08T21:39:18.369Z,78.47
2019-02-08T21:41:50.569Z,80.53
2019-02-08T21:44:23.029Z,69.00
2019-02-08T21:46:55.594Z,76.30
2019-02-08T21:49:26.901Z,67.13
2019-02-08T21:51:57.959Z,60.60
2019-02-08T21:54:29.069Z,73.53
2019-02-08T21:56:59.909Z,71.37
2019-02-08T21:59:31.556Z,70.20
2019-02-08T22:02:02.589Z,62.80
2019-02-08T22:04:33.500Z,69.47
2019-02-08T22:07:04.629Z,57.90
2019-02-08T22:09:35.548Z,58.33
2019-02-08T22:12:06.744Z,65.00
2019-02-08T22:14:37.836Z,61.57
2019-02-08T22:17:08.818Z,66.30
2019-02-08T22:19:39.474Z,70.17
2019-02-08T22:22:10.375Z,76.33
2019-02-08T22:24:41.224Z,68.50
2019-02-08T22:27:11.964Z,75.97
2019-02-08T22:29:42.950Z,76.60
2019-02-08T22:32:13.879Z,82.90
2019-02-08T22:34:44.639Z,76.67
2019-02-08T22:37:15.310Z,73.47
2019-02-08T22:39:46.169Z,74.97
2019-02-08T22:42:16.844Z,82.73
2019-02-08T22:44:47.530Z,74.43
2019-02-08T22:47:18.313Z,77.77
2019-02-08T22:49:49.360Z,78.77
2019-02-08T22:52:20.394Z,80.07
2019-02-08T22:54:51.199Z,81.67
2019-02-08T22:57:22.024Z,75.03
2019-02-08T22:59:53.164Z,80.73
2019-02-08T23:02:24.759Z,74.00
2019-02-08T23:05:15.797Z,76.30
2019-02-08T23:07:46.719Z,77.00
2019-02-08T23:10:17.549Z,75.07
2019-02-08T23:12:48.090Z,76.93
2019-02-08T23:15:18.940Z,70.17
2019-02-08T23:17:49.529Z,76.43
2019-02-08T23:20:20.070Z,80.47
2019-02-08T23:22:50.763Z,65.80
2019-02-08T23:25:21.459Z,75.10
2019-02-08T23:27:52.324Z,72.87
2019-02-08T23:30:23.197Z,71.60
2019-02-08T23:32:53.914Z,73.33
2019-02-08T23:35:24.674Z,75.20
2019-02-08T23:37:55.439Z,67.43
2019-02-08T23:40:26.450Z,69.27
2019-02-08T23:42:57.354Z,71.97
2019-02-08T23:45:28.253Z,71.33
2019-02-08T23:47:59.025Z,64.57
2019-02-08T23:50:29.629Z,70.10
2019-02-08T23:53:00.209Z,70.20
2019-02-08T23:55:30.896Z,69.50
2019-02-08T23:58:01.479Z,64.83
